Time;durP1;ratioP1;P1;durP2;ratioP2;P2;SDS_P1;SDS_P2;PMS_P1;PMS_P2;Temp;Humidity;BMP_temperature;BMP_pressure;BME280_temperature;BME280_humidity;BME280_pressure;Samples;Min_cycle;Max_cycle;Signal;HPM_P1;HPM_P2
2023/08/16 00:02:05;;;;;;;3.60;3.30;;;;;;;26.09;57.40;97701.56;5137954;27;20877;-71
2023/08/16 00:04:31;;;;;;;3.70;2.90;;;;;;;26.01;57.53;97699.28;5137179;27;20285;-70
2023/08/16 00:06:57;;;;;;;5.50;3.20;;;;;;;25.73;58.47;97682.09;5132681;27;20186;-71
2023/08/16 00:09:22;;;;;;;3.00;2.80;;;;;;;25.68;58.48;97676.66;5130317;27;20223;-69
2023/08/16 00:11:48;;;;;;;3.97;3.00;;;;;;;25.75;58.77;97669.28;5138973;27;20203;-70
2023/08/16 00:14:13;;;;;;;3.00;2.70;;;;;;;25.86;58.62;97676.47;5125254;27;20183;-70
2023/08/16 00:16:40;;;;;;;9.30;2.77;;;;;;;26.00;58.11;97676.16;5121037;27;20729;-69
2023/08/16 00:19:05;;;;;;;3.53;2.80;;;;;;;26.14;58.05;97674.84;5124268;27;20200;-70
2023/08/16 00:21:31;;;;;;;4.27;2.90;;;;;;;26.15;57.59;97651.50;5136682;27;20842;-70
2023/08/16 00:23:56;;;;;;;3.17;2.90;;;;;;;26.12;57.87;97649.28;5138271;27;20676;-70
2023/08/16 00:26:23;;;;;;;5.03;2.57;;;;;;;26.05;57.92;97636.78;5129220;27;20279;-70
2023/08/16 00:28:49;;;;;;;3.40;2.90;;;;;;;26.00;58.68;97636.72;5127707;27;20204;-69
2023/08/16 00:31:15;;;;;;;3.80;2.80;;;;;;;26.00;58.66;97649.31;5131458;27;20426;-70
2023/08/16 00:33:40;;;;;;;3.10;2.80;;;;;;;25.94;59.00;97661.03;5120121;27;20648;-70
2023/08/16 00:36:06;;;;;;;4.07;2.47;;;;;;;26.04;58.95;97674.63;5119966;27;20199;-69
2023/08/16 00:38:32;;;;;;;4.90;2.90;;;;;;;26.02;59.36;97677.53;5127662;27;20208;-70
2023/08/16 00:40:58;;;;;;;3.77;2.53;;;;;;;26.04;59.47;97667.38;5125791;27;20508;-70
2023/08/16 00:43:24;;;;;;;5.17;3.00;;;;;;;26.09;59.63;97668.53;5130491;27;20203;-70
2023/08/16 00:45:50;;;;;;;9.17;2.97;;;;;;;26.05;59.80;97666.34;5131800;27;20456;-69
2023/08/16 00:48:16;;;;;;;4.50;2.90;;;;;;;25.97;59.81;97653.31;5128036;27;20235;-70
2023/08/16 00:50:41;;;;;;;3.83;2.93;;;;;;;25.98;60.43;97659.47;5101767;27;20239;-69
2023/08/16 00:53:08;;;;;;;3.93;2.83;;;;;;;25.98;60.00;97667.53;5118338;28;20418;-70
2023/08/16 00:55:34;;;;;;;3.47;2.80;;;;;;;26.03;60.45;97663.06;5128672;27;20700;-69
2023/08/16 00:57:59;;;;;;;4.93;3.10;;;;;;;26.09;60.39;97657.81;5118724;27;20443;-69
2023/08/16 01:00:26;;;;;;;3.40;3.10;;;;;;;26.02;60.81;97652.56;5138728;27;20233;-70
2023/08/16 01:02:52;;;;;;;4.00;2.87;;;;;;;26.07;60.22;97645.44;5119414;27;20184;-70
2023/08/16 01:05:17;;;;;;;6.40;2.80;;;;;;;26.06;60.08;97641.09;5137294;27;20458;-69
2023/08/16 01:07:43;;;;;;;3.00;2.80;;;;;;;25.98;60.15;97641.50;5142257;27;20204;-71
2023/08/16 01:10:08;;;;;;;3.53;2.83;;;;;;;26.01;60.29;97640.22;5138699;27;20702;-71
2023/08/16 01:12:38;;;;;;;4.73;3.17;;;;;;;26.05;60.36;97633.31;5120130;27;20660;-69
2023/08/16 01:15:19;;;;;;;4.57;2.70;;;;;;;26.09;60.33;97637.13;5114580;27;20183;-69
2023/08/16 01:17:45;;;;;;;4.73;2.93;;;;;;;26.14;60.25;97633.75;5116982;27;20459;-70
2023/08/16 01:20:12;;;;;;;5.43;3.30;;;;;;;26.15;60.19;97635.38;5122417;27;20430;-69
2023/08/16 01:22:55;;;;;;;3.67;2.87;;;;;;;26.17;60.32;97634.09;5112982;27;20185;-69
2023/08/16 01:25:23;;;;;;;5.00;3.03;;;;;;;26.11;60.07;97634.25;5113868;27;20461;-69
2023/08/16 01:27:51;;;;;;;5.37;2.90;;;;;;;25.93;59.83;97633.34;5131604;27;20434;-70
2023/08/16 01:30:18;;;;;;;3.57;2.77;;;;;;;25.82;60.44;97636.91;5136939;27;20425;-70
2023/08/16 01:32:43;;;;;;;4.83;2.73;;;;;;;25.77;60.79;97629.59;5141418;27;20415;-69
2023/08/16 01:35:09;;;;;;;5.30;3.40;;;;;;;25.75;61.12;97632.53;5139199;27;20441;-68
2023/08/16 01:37:34;;;;;;;6.87;3.83;;;;;;;25.70;61.08;97628.94;5131671;27;20200;-67
2023/08/16 01:40:04;;;;;;;5.10;3.13;;;;;;;25.68;61.03;97629.16;5133052;27;20531;-69
2023/08/16 01:42:32;;;;;;;5.17;3.57;;;;;;;25.61;61.20;97621.25;5133387;27;20195;-70
2023/08/16 01:44:59;;;;;;;5.87;3.47;;;;;;;25.60;61.41;97619.63;5134094;27;20457;-68
2023/08/16 01:47:27;;;;;;;3.90;3.00;;;;;;;25.57;61.36;97621.97;5118721;27;20448;-69
2023/08/16 01:49:55;;;;;;;4.90;2.80;;;;;;;25.54;61.04;97620.59;5131880;27;20421;-67
2023/08/16 01:52:21;;;;;;;3.47;3.17;;;;;;;25.52;61.33;97616.53;5139300;27;20508;-70
2023/08/16 01:54:46;;;;;;;3.10;2.70;;;;;;;25.51;61.43;97623.75;5139076;27;20493;-68
2023/08/16 01:57:12;;;;;;;4.50;3.40;;;;;;;25.52;61.25;97627.25;5132233;27;20547;-69
2023/08/16 01:59:37;;;;;;;4.30;3.10;;;;;;;25.52;61.65;97628.06;5146325;27;20698;-68
2023/08/16 02:02:03;;;;;;;3.27;2.97;;;;;;;25.56;61.60;97623.84;5135588;27;20204;-70
2023/08/16 02:04:28;;;;;;;5.30;2.70;;;;;;;25.60;61.17;97629.56;5138928;27;20212;-71
2023/08/16 02:06:54;;;;;;;4.73;2.60;;;;;;;25.56;61.39;97623.03;5127813;27;20595;-71
2023/08/16 02:09:19;;;;;;;3.40;2.80;;;;;;;25.52;61.24;97622.69;5137048;27;20207;-69
2023/08/16 02:11:45;;;;;;;3.17;2.87;;;;;;;25.41;61.50;97616.31;5136897;27;20216;-70
2023/08/16 02:14:10;;;;;;;4.37;2.80;;;;;;;25.41;61.64;97624.34;5123167;27;20241;-70
2023/08/16 02:16:36;;;;;;;4.10;2.77;;;;;;;25.44;61.37;97621.19;5130479;27;20215;-70
2023/08/16 02:19:01;;;;;;;3.33;2.90;;;;;;;25.46;61.57;97615.59;5118617;27;20203;-69
2023/08/16 02:21:27;;;;;;;4.20;2.90;;;;;;;25.46;61.21;97610.22;5131178;27;20543;-69
2023/08/16 02:23:52;;;;;;;3.23;3.03;;;;;;;25.48;61.22;97610.81;5124987;27;20180;-69
2023/08/16 02:26:18;;;;;;;3.53;2.90;;;;;;;25.52;61.14;97613.84;5131086;27;20720;-70
2023/08/16 02:28:43;;;;;;;2.80;2.60;;;;;;;25.46;60.93;97610.22;5125925;27;20239;-69
2023/08/16 02:31:09;;;;;;;5.60;3.20;;;;;;;25.38;61.32;97607.91;5130821;27;20270;-69
2023/08/16 02:33:34;;;;;;;4.50;2.53;;;;;;;25.38;61.02;97598.00;5131778;27;20183;-71
2023/08/16 02:36:00;;;;;;;3.10;2.90;;;;;;;25.37;61.22;97595.53;5135234;27;20686;-72
2023/08/16 02:38:25;;;;;;;3.10;2.90;;;;;;;25.38;61.30;97589.94;5141013;27;20242;-69
2023/08/16 02:40:50;;;;;;;3.73;3.40;;;;;;;25.36;61.21;97586.69;5132669;27;20184;-71
2023/08/16 02:43:16;;;;;;;3.20;3.00;;;;;;;25.32;60.87;97584.72;5140401;27;20183;-73
2023/08/16 02:45:42;;;;;;;3.70;2.63;;;;;;;25.23;61.27;97581.59;5135928;27;20210;-69
2023/08/16 02:48:08;;;;;;;4.90;3.03;;;;;;;25.10;61.30;97593.41;5120130;27;20284;-71
2023/08/16 02:50:33;;;;;;;3.73;3.40;;;;;;;25.09;61.87;97591.75;5112138;27;20191;-72
2023/08/16 02:52:58;;;;;;;4.43;3.03;;;;;;;25.09;61.46;97589.09;5125997;27;22415;-73
2023/08/16 02:55:24;;;;;;;4.10;3.40;;;;;;;25.09;61.71;97591.75;5130432;27;20569;-70
2023/08/16 02:57:49;;;;;;;3.80;3.20;;;;;;;25.08;61.53;97590.13;5130750;27;20208;-70
2023/08/16 03:00:15;;;;;;;3.70;3.10;;;;;;;25.02;61.64;97596.44;5127701;27;20268;-73
2023/08/16 03:02:41;;;;;;;3.80;2.93;;;;;;;24.97;61.68;97589.94;5143697;27;20595;-71
2023/08/16 03:05:06;;;;;;;3.20;3.00;;;;;;;24.94;61.82;97590.41;5129870;27;20274;-69
2023/08/16 03:07:32;;;;;;;3.97;3.40;;;;;;;24.98;61.95;97585.41;5129868;27;20200;-69
2023/08/16 03:09:58;;;;;;;4.40;3.00;;;;;;;25.00;61.86;97597.50;5135688;27;20298;-70
2023/08/16 03:12:23;;;;;;;16.50;3.80;;;;;;;25.05;61.70;97596.00;5139040;27;20675;-69
2023/08/16 03:14:49;;;;;;;5.63;2.97;;;;;;;25.04;61.41;97594.34;5134928;27;20303;-70
2023/08/16 03:17:14;;;;;;;5.77;3.10;;;;;;;24.99;61.33;97592.38;5142446;27;20187;-71
2023/08/16 03:19:40;;;;;;;3.03;2.83;;;;;;;25.00;61.67;97600.19;5126778;27;20195;-69
2023/08/16 03:22:05;;;;;;;4.77;3.60;;;;;;;25.05;61.08;97601.34;5115557;27;20700;-68
2023/08/16 03:24:31;;;;;;;4.20;3.10;;;;;;;25.01;60.71;97606.38;5126309;27;20234;-70
2023/08/16 03:26:56;;;;;;;4.73;3.10;;;;;;;25.02;61.09;97623.25;5123476;27;20184;-71
2023/08/16 03:29:21;;;;;;;3.30;2.80;;;;;;;24.99;61.15;97625.34;5140610;27;20203;-69
2023/08/16 03:31:47;;;;;;;3.17;2.97;;;;;;;24.91;60.82;97624.91;5124220;27;20231;-69
2023/08/16 03:34:13;;;;;;;5.63;3.23;;;;;;;24.79;60.84;97632.97;5127819;27;20728;-69
2023/08/16 03:36:39;;;;;;;4.00;3.17;;;;;;;24.77;61.28;97627.00;5112153;27;20264;-70
2023/08/16 03:39:05;;;;;;;4.33;3.13;;;;;;;24.80;61.31;97632.72;5114599;27;20453;-70
2023/08/16 03:41:32;;;;;;;3.13;2.93;;;;;;;24.81;61.42;97645.06;5113255;27;20216;-69
2023/08/16 03:43:58;;;;;;;3.77;3.23;;;;;;;24.80;60.90;97648.00;5128485;27;20185;-69
2023/08/16 03:46:23;;;;;;;3.50;3.20;;;;;;;24.77;61.16;97659.19;5124016;27;20873;-70
2023/08/16 03:48:49;;;;;;;4.23;2.93;;;;;;;24.71;61.35;97660.09;5130467;27;20269;-69
2023/08/16 03:51:14;;;;;;;3.53;2.70;;;;;;;24.63;61.58;97664.72;5131775;27;20181;-69
2023/08/16 03:53:39;;;;;;;4.40;3.37;;;;;;;24.63;61.28;97664.72;5125863;27;20192;-70
2023/08/16 03:56:05;;;;;;;3.83;3.03;;;;;;;24.67;61.60;97684.66;5132081;27;20290;-68
2023/08/16 03:58:30;;;;;;;4.03;3.07;;;;;;;24.65;61.48;97702.81;5135570;27;20240;-69
2023/08/16 04:00:56;;;;;;;3.77;3.37;;;;;;;24.61;62.13;97723.09;5131588;27;20228;-69
2023/08/16 04:03:21;;;;;;;4.27;3.20;;;;;;;24.61;62.21;97717.72;5128843;27;20188;-69
2023/08/16 04:05:49;;;;;;;5.10;3.80;;;;;;;24.60;61.86;97710.72;5121718;27;20703;-70
2023/08/16 04:08:14;;;;;;;4.43;3.23;;;;;;;24.56;62.27;97716.78;5129924;27;20469;-70
2023/08/16 04:10:40;;;;;;;6.37;3.60;;;;;;;24.52;62.27;97724.47;5127786;27;20211;-68
2023/08/16 04:13:05;;;;;;;4.30;3.60;;;;;;;24.51;62.43;97730.88;5127178;27;20267;-68
2023/08/16 04:15:31;;;;;;;8.40;4.00;;;;;;;24.48;62.27;97729.47;5138983;27;20224;-70
2023/08/16 04:17:56;;;;;;;5.43;3.20;;;;;;;24.52;62.30;97719.13;5121384;27;20208;-68
2023/08/16 04:20:22;;;;;;;4.90;3.77;;;;;;;24.51;62.25;97728.19;5128116;27;20657;-68
2023/08/16 04:22:48;;;;;;;4.93;3.57;;;;;;;24.54;62.32;97714.34;5126334;27;20627;-67
2023/08/16 04:25:13;;;;;;;7.03;3.77;;;;;;;24.59;62.25;97714.44;5125231;27;20501;-70
2023/08/16 04:27:39;;;;;;;3.60;2.80;;;;;;;24.63;62.01;97723.69;5128430;27;20579;-69
2023/08/16 04:30:06;;;;;;;4.63;3.33;;;;;;;24.57;62.06;97719.25;5119650;27;20215;-68
2023/08/16 04:32:31;;;;;;;5.10;3.70;;;;;;;24.54;62.25;97712.47;5133410;27;20194;-69
2023/08/16 04:34:57;;;;;;;4.50;3.23;;;;;;;24.54;62.31;97703.63;5130090;27;20713;-71
2023/08/16 04:37:22;;;;;;;3.70;3.40;;;;;;;24.37;61.97;97712.31;5132522;27;20184;-69
2023/08/16 04:39:48;;;;;;;7.03;3.83;;;;;;;24.23;62.94;97710.88;5133289;27;20188;-72
2023/08/16 04:42:14;;;;;;;5.20;3.17;;;;;;;24.22;63.36;97707.41;5141346;27;20184;-69
2023/08/16 04:44:39;;;;;;;4.37;3.40;;;;;;;24.30;62.82;97703.59;5131918;27;20414;-69
2023/08/16 04:47:05;;;;;;;3.20;2.90;;;;;;;24.39;62.97;97704.88;5129769;27;20192;-68
2023/08/16 04:49:32;;;;;;;3.40;3.10;;;;;;;24.51;63.27;97701.41;5132396;27;20230;-69
2023/08/16 04:51:58;;;;;;;6.10;3.57;;;;;;;24.57;62.75;97691.63;5127326;27;20213;-68
2023/08/16 04:54:23;;;;;;;7.00;3.60;;;;;;;24.50;62.33;97684.53;5132539;27;20464;-69
2023/08/16 04:56:49;;;;;;;4.43;3.70;;;;;;;24.52;62.45;97678.94;5121966;27;20261;-69
2023/08/16 04:59:16;;;;;;;4.43;3.40;;;;;;;24.54;62.56;97671.50;5115164;27;20266;-69
2023/08/16 05:01:41;;;;;;;6.83;3.60;;;;;;;24.60;62.24;97670.53;5125218;27;20424;-69
2023/08/16 05:04:08;;;;;;;4.80;3.33;;;;;;;24.69;62.42;97669.19;5103397;27;20418;-71
2023/08/16 05:06:34;;;;;;;6.63;3.27;;;;;;;24.77;62.08;97661.84;5136217;27;20211;-68
2023/08/16 05:09:00;;;;;;;3.40;3.10;;;;;;;24.86;62.24;97668.50;5127619;27;20434;-69
2023/08/16 05:11:25;;;;;;;3.53;3.00;;;;;;;24.93;61.84;97668.38;5124884;27;22742;-69
2023/08/16 05:13:51;;;;;;;3.77;3.13;;;;;;;24.93;61.58;97666.53;5133990;27;20192;-69
2023/08/16 05:16:16;;;;;;;3.90;3.27;;;;;;;24.89;61.46;97681.44;5120876;27;20782;-68
2023/08/16 05:18:42;;;;;;;4.23;2.97;;;;;;;24.90;61.67;97664.28;5122828;27;20356;-69
2023/08/16 05:21:07;;;;;;;5.00;3.60;;;;;;;24.86;61.66;97655.09;5124399;27;20271;-68
2023/08/16 05:23:34;;;;;;;6.40;3.60;;;;;;;24.88;61.76;97655.66;5114268;27;20188;-68
2023/08/16 05:25:59;;;;;;;4.70;3.20;;;;;;;24.94;61.85;97652.06;5122205;27;20869;-70
2023/08/16 05:28:25;;;;;;;3.60;3.20;;;;;;;25.00;62.12;97659.16;5129531;27;20520;-68
2023/08/16 05:30:51;;;;;;;4.73;3.27;;;;;;;25.08;61.83;97667.88;5126411;27;20180;-69
2023/08/16 05:33:16;;;;;;;4.43;3.50;;;;;;;25.15;61.47;97672.06;5128245;27;20270;-71
2023/08/16 05:35:41;;;;;;;3.47;3.10;;;;;;;25.25;61.39;97673.34;5129965;27;20188;-69
2023/08/16 05:38:07;;;;;;;4.93;3.40;;;;;;;25.32;61.32;97678.59;5138857;27;20203;-69
2023/08/16 05:40:32;;;;;;;5.30;3.90;;;;;;;25.32;60.97;97681.28;5121191;27;20725;-70
2023/08/16 05:42:58;;;;;;;6.43;3.50;;;;;;;25.41;61.58;97693.28;5133705;27;20184;-67
2023/08/16 05:45:26;;;;;;;4.57;3.43;;;;;;;25.51;61.36;97693.50;5121400;27;20296;-69
2023/08/16 05:47:52;;;;;;;3.70;3.03;;;;;;;25.61;61.08;97695.59;5101828;28;20204;-68
2023/08/16 05:50:18;;;;;;;4.57;3.40;;;;;;;25.68;60.83;97700.81;5125344;27;20927;-70
2023/08/16 05:52:43;;;;;;;4.60;3.40;;;;;;;25.74;60.75;97694.47;5122055;27;20414;-70
2023/08/16 05:55:09;;;;;;;3.60;3.30;;;;;;;25.79;60.88;97686.53;5118371;27;20264;-69
2023/08/16 05:57:34;;;;;;;7.07;4.07;;;;;;;25.86;60.43;97697.13;5120732;27;21631;-69
2023/08/16 05:59:59;;;;;;;4.30;3.47;;;;;;;25.92;60.29;97697.00;5123751;27;20187;-68
2023/08/16 06:02:25;;;;;;;10.13;4.10;;;;;;;25.89;60.99;97694.78;5121429;27;20333;-69
2023/08/16 06:04:52;;;;;;;5.63;4.03;;;;;;;25.98;60.53;97694.38;5116838;27;20694;-68
2023/08/16 06:07:17;;;;;;;4.60;4.20;;;;;;;26.01;60.61;97691.22;5139445;27;20564;-69
2023/08/16 06:09:43;;;;;;;4.83;4.40;;;;;;;26.04;61.04;97693.44;5130188;27;20430;-69
2023/08/16 06:12:08;;;;;;;6.43;5.53;;;;;;;26.03;60.34;97697.16;5123675;27;20192;-69
2023/08/16 06:14:34;;;;;;;8.07;6.13;;;;;;;25.96;60.63;97693.84;5114518;27;20751;-71
2023/08/16 06:16:59;;;;;;;8.90;6.17;;;;;;;25.97;60.62;97698.13;5126456;27;20189;-69
2023/08/16 06:19:25;;;;;;;9.90;6.97;;;;;;;25.81;60.73;97700.53;5122589;27;20212;-69
2023/08/16 06:21:50;;;;;;;10.30;6.83;;;;;;;25.91;61.28;97700.72;5106482;27;20177;-69
2023/08/16 06:24:16;;;;;;;11.23;6.97;;;;;;;25.96;60.07;97700.00;5128353;27;20184;-69
2023/08/16 06:26:41;;;;;;;11.40;7.40;;;;;;;25.55;61.67;97704.56;5140458;27;20204;-68
2023/08/16 06:29:07;;;;;;;11.93;6.10;;;;;;;25.48;62.44;97707.38;5135413;27;20215;-69
2023/08/16 06:31:32;;;;;;;8.07;6.63;;;;;;;25.53;61.93;97704.81;5133500;27;20667;-69
2023/08/16 06:34:00;;;;;;;7.47;6.77;;;;;;;25.56;61.84;97706.19;5128797;27;20208;-69
2023/08/16 06:36:26;;;;;;;8.63;6.50;;;;;;;25.60;61.62;97708.16;5120335;27;20354;-71
2023/08/16 06:38:53;;;;;;;5.90;5.40;;;;;;;25.67;61.43;97704.56;5122216;27;20824;-68
2023/08/16 06:41:19;;;;;;;9.93;5.47;;;;;;;25.69;61.44;97707.81;5136284;27;20421;-70
2023/08/16 06:43:44;;;;;;;11.03;5.03;;;;;;;25.76;61.10;97708.47;5115850;27;20434;-69
2023/08/16 06:46:10;;;;;;;7.40;5.80;;;;;;;25.87;61.36;97702.25;5119101;27;20230;-69
2023/08/16 06:48:35;;;;;;;11.80;4.50;;;;;;;25.99;60.98;97696.00;5122220;27;20204;-69
2023/08/16 06:51:01;;;;;;;5.37;4.90;;;;;;;26.13;60.63;97694.69;5124192;27;20189;-68
2023/08/16 06:53:27;;;;;;;10.23;4.90;;;;;;;26.36;60.43;97704.50;5116830;27;20184;-69
2023/08/16 06:55:54;;;;;;;6.60;5.90;;;;;;;26.59;59.82;97704.63;5120619;27;20230;-69
2023/08/16 06:58:20;;;;;;;6.93;5.40;;;;;;;26.71;58.61;97702.66;5131145;27;20444;-69
2023/08/16 07:00:47;;;;;;;5.30;4.80;;;;;;;26.91;58.57;97695.97;5111794;27;20426;-69
2023/08/16 07:03:13;;;;;;;5.60;4.47;;;;;;;26.89;57.92;97692.72;5121419;27;20268;-69
2023/08/16 07:05:39;;;;;;;9.13;5.10;;;;;;;27.08;57.38;97696.78;5125995;27;20554;-69
2023/08/16 07:08:05;;;;;;;9.00;5.10;;;;;;;27.26;57.59;97689.47;5119365;27;20215;-68
2023/08/16 07:10:31;;;;;;;6.40;4.87;;;;;;;27.37;57.13;97688.53;5125441;27;20192;-70
2023/08/16 07:12:56;;;;;;;5.50;5.00;;;;;;;27.51;56.13;97688.19;5108452;27;20512;-70
2023/08/16 07:15:21;;;;;;;9.23;5.00;;;;;;;27.68;55.98;97691.63;5114551;27;20268;-71
2023/08/16 07:17:47;;;;;;;5.80;4.70;;;;;;;27.85;55.53;97691.53;5120086;27;20232;-71
2023/08/16 07:20:13;;;;;;;6.80;4.23;;;;;;;27.97;54.69;97699.50;5117784;27;20191;-71
2023/08/16 07:22:38;;;;;;;10.80;4.97;;;;;;;28.15;54.78;97697.53;5124418;27;20203;-70
2023/08/16 07:25:05;;;;;;;9.30;4.90;;;;;;;28.34;54.22;97696.09;5127010;27;20205;-71
2023/08/16 07:27:30;;;;;;;14.80;4.30;;;;;;;28.53;54.00;97697.59;5136046;27;20184;-70
2023/08/16 07:29:56;;;;;;;4.67;4.20;;;;;;;28.67;53.37;97698.75;5126687;27;20514;-70
2023/08/16 07:32:21;;;;;;;6.60;4.80;;;;;;;28.83;52.80;97691.66;5124928;27;20215;-70
2023/08/16 07:34:47;;;;;;;5.43;4.17;;;;;;;28.93;52.37;97691.72;5127783;27;20195;-69
2023/08/16 07:37:13;;;;;;;9.83;4.73;;;;;;;28.92;51.62;97700.88;5122957;27;20325;-69
2023/08/16 07:39:39;;;;;;;5.20;4.43;;;;;;;28.98;51.71;97698.22;5120087;27;20679;-68
2023/08/16 07:42:06;;;;;;;7.77;4.00;;;;;;;29.09;51.92;97695.31;5127911;27;20192;-68
2023/08/16 07:44:35;;;;;;;6.10;4.37;;;;;;;29.22;51.81;97701.31;5115566;27;20459;-71
2023/08/16 07:47:00;;;;;;;6.20;5.03;;;;;;;29.33;51.19;97702.19;5115763;27;20928;-70
2023/08/16 07:49:26;;;;;;;5.37;4.10;;;;;;;29.42;49.93;97701.44;5123098;27;20487;-69
2023/08/16 07:51:54;;;;;;;7.07;4.47;;;;;;;29.57;50.31;97710.66;5117134;27;20204;-71
2023/08/16 07:54:20;;;;;;;9.13;4.73;;;;;;;29.71;49.33;97708.31;5126660;27;20196;-69
2023/08/16 07:56:45;;;;;;;6.53;5.47;;;;;;;29.77;48.73;97707.25;5122400;27;20455;-71
2023/08/16 07:59:11;;;;;;;5.40;4.63;;;;;;;29.87;49.10;97707.25;5121495;27;20242;-70
2023/08/16 08:01:36;;;;;;;6.50;4.97;;;;;;;29.96;48.98;97707.59;5122210;27;20183;-70
2023/08/16 08:04:02;;;;;;;7.80;5.63;;;;;;;30.07;48.68;97697.63;5119843;27;20267;-70
2023/08/16 08:06:28;;;;;;;5.10;4.53;;;;;;;30.23;48.39;97695.75;5116115;27;20212;-68
2023/08/16 08:08:53;;;;;;;7.70;5.10;;;;;;;30.31;48.06;97702.50;5118053;27;20434;-70
2023/08/16 08:11:19;;;;;;;5.67;4.60;;;;;;;30.52;48.40;97699.81;5125116;27;20285;-68
2023/08/16 08:13:44;;;;;;;6.07;5.07;;;;;;;30.68;47.49;97696.06;5122095;27;20579;-69
2023/08/16 08:16:10;;;;;;;7.97;5.97;;;;;;;30.46;47.06;97699.81;5124889;27;20181;-70
2023/08/16 08:18:35;;;;;;;5.07;4.53;;;;;;;30.68;47.23;97696.06;5119240;27;20291;-69
2023/08/16 08:21:00;;;;;;;4.50;3.70;;;;;;;30.90;47.22;97697.66;5115793;27;20200;-70
2023/08/16 08:23:26;;;;;;;8.87;5.30;;;;;;;31.10;46.29;97694.91;5122803;27;20216;-70
2023/08/16 08:25:51;;;;;;;9.20;5.10;;;;;;;31.08;45.13;97707.09;5126685;27;20199;-71
2023/08/16 08:28:18;;;;;;;8.07;4.87;;;;;;;31.13;46.01;97698.19;5122609;27;20204;-71
2023/08/16 08:30:44;;;;;;;6.70;4.53;;;;;;;31.40;46.04;97695.13;5116089;27;20217;-71
2023/08/16 08:33:10;;;;;;;4.93;4.33;;;;;;;31.64;45.48;97697.19;5124721;27;20426;-71
2023/08/16 08:35:35;;;;;;;9.00;4.60;;;;;;;31.82;44.63;97695.78;5095342;27;20418;-70
2023/08/16 08:38:01;;;;;;;7.20;4.50;;;;;;;31.97;43.95;97692.97;5118898;27;20215;-70
2023/08/16 08:40:30;;;;;;;8.20;4.17;;;;;;;32.14;43.92;97691.75;5119049;27;20241;-70
2023/08/16 08:43:01;;;;;;;5.43;4.27;;;;;;;32.34;43.96;97687.34;5123343;27;20886;-70
2023/08/16 08:45:27;;;;;;;8.10;4.10;;;;;;;32.49;43.14;97692.63;5100368;27;20457;-69
2023/08/16 08:47:54;;;;;;;6.93;4.10;;;;;;;32.49;43.23;97687.22;5123061;27;20512;-69
2023/08/16 08:50:19;;;;;;;6.50;4.30;;;;;;;32.70;42.85;97692.44;5106721;27;20184;-70
2023/08/16 08:52:50;;;;;;;6.83;4.10;;;;;;;32.86;42.87;97691.25;5102286;28;20429;-70
2023/08/16 08:55:15;;;;;;;13.40;4.90;;;;;;;33.12;42.55;97693.69;5105801;28;20599;-71
2023/08/16 08:57:42;;;;;;;5.43;4.30;;;;;;;33.12;40.97;97696.41;5101578;27;20425;-70
2023/08/16 09:00:11;;;;;;;7.90;3.80;;;;;;;33.28;42.25;97694.31;5131255;27;20710;-70
2023/08/16 09:02:37;;;;;;;9.40;4.30;;;;;;;33.48;40.09;97704.16;5127889;27;20947;-70
2023/08/16 09:05:04;;;;;;;7.37;4.23;;;;;;;33.68;39.96;97700.38;5107310;27;20468;-70
2023/08/16 09:07:31;;;;;;;4.13;3.73;;;;;;;33.80;39.90;97697.22;5104029;27;20192;-70
2023/08/16 09:09:58;;;;;;;6.70;3.87;;;;;;;33.93;39.92;97693.00;5101122;28;20447;-71
2023/08/16 09:12:24;;;;;;;7.40;3.90;;;;;;;34.17;39.28;97694.00;5120841;27;20468;-69
2023/08/16 09:14:49;;;;;;;6.90;4.07;;;;;;;34.33;38.52;97687.25;5127974;27;20520;-71
2023/08/16 09:17:15;;;;;;;8.07;3.90;;;;;;;34.45;38.68;97690.34;5126056;27;20297;-70
2023/08/16 09:19:46;;;;;;;4.97;4.03;;;;;;;34.59;38.72;97686.84;5122984;27;20211;-70
2023/08/16 09:22:12;;;;;;;9.53;4.23;;;;;;;34.42;37.97;97680.03;5117717;27;20538;-70
2023/08/16 09:24:40;;;;;;;5.80;3.93;;;;;;;34.53;39.06;97679.91;5132910;27;20430;-69
2023/08/16 09:27:06;;;;;;;4.63;4.20;;;;;;;34.52;38.37;97672.84;5114783;27;20267;-70
2023/08/16 09:29:31;;;;;;;3.70;3.37;;;;;;;34.52;38.45;97667.41;5130478;27;20578;-71
2023/08/16 09:31:57;;;;;;;8.03;4.10;;;;;;;34.58;38.37;97671.63;5121537;27;20249;-70
2023/08/16 09:34:24;;;;;;;9.30;3.70;;;;;;;34.45;37.14;97662.34;5113627;27;20294;-70
2023/08/16 09:36:51;;;;;;;4.37;3.60;;;;;;;34.26;37.83;97665.06;5140430;27;20441;-69
2023/08/16 09:39:17;;;;;;;4.80;3.73;;;;;;;34.25;38.95;97661.53;5115057;27;20448;-70
2023/08/16 09:41:49;;;;;;;6.60;3.87;;;;;;;34.30;37.76;97666.06;5135771;27;20799;-71
2023/08/16 09:44:15;;;;;;;6.13;3.80;;;;;;;34.12;37.36;97659.56;5131000;27;20180;-71
2023/08/16 09:46:41;;;;;;;6.33;3.70;;;;;;;33.97;37.64;97657.88;5130937;27;20530;-71
2023/08/16 09:49:08;;;;;;;12.80;4.00;;;;;;;33.60;38.44;97659.47;5113202;27;20248;-72
2023/08/16 09:51:35;;;;;;;6.37;3.80;;;;;;;33.45;39.10;97650.41;5131639;27;20496;-71
2023/08/16 09:54:02;;;;;;;5.03;3.80;;;;;;;33.33;39.39;97660.88;5139871;27;20421;-71
2023/08/16 09:56:31;;;;;;;6.60;4.07;;;;;;;33.73;39.53;97653.31;5132752;27;21008;-71
2023/08/16 09:58:58;;;;;;;5.03;3.93;;;;;;;34.15;39.18;97654.34;5137136;27;20439;-71
2023/08/16 10:01:23;;;;;;;12.00;4.90;;;;;;;34.22;37.72;97658.59;5120863;27;20540;-70
2023/08/16 10:03:52;;;;;;;9.00;4.17;;;;;;;34.38;38.58;97656.44;5105483;27;20425;-69
2023/08/16 10:06:21;;;;;;;5.37;4.40;;;;;;;33.62;39.10;97660.00;5133906;27;20294;-70
2023/08/16 10:08:47;;;;;;;10.13;4.07;;;;;;;33.98;39.26;97648.63;5125642;27;20440;-72
2023/08/16 10:11:13;;;;;;;8.10;4.50;;;;;;;34.40;38.83;97657.78;5113508;27;20547;-71
2023/08/16 10:13:38;;;;;;;7.00;4.47;;;;;;;34.69;38.54;97654.00;5121202;27;20260;-71
2023/08/16 10:16:04;;;;;;;5.50;4.60;;;;;;;34.82;37.69;97651.59;5112515;27;20213;-72
2023/08/16 10:18:30;;;;;;;4.83;4.07;;;;;;;34.85;37.85;97654.53;5120581;27;20265;-71
2023/08/16 10:20:59;;;;;;;6.80;4.40;;;;;;;34.75;36.99;97655.56;5117230;27;20187;-72
2023/08/16 10:23:26;;;;;;;10.23;4.63;;;;;;;34.89;37.80;97652.03;5105531;27;20444;-71
2023/08/16 10:25:52;;;;;;;7.53;4.60;;;;;;;34.80;37.30;97651.91;5116094;27;20950;-70
2023/08/16 10:28:21;;;;;;;7.00;4.20;;;;;;;34.87;37.93;97659.69;5119703;27;20772;-70
2023/08/16 10:30:50;;;;;;;5.63;3.93;;;;;;;35.22;37.11;97650.03;5110963;27;20429;-70
2023/08/16 10:33:19;;;;;;;8.30;4.40;;;;;;;35.39;36.70;97647.81;5130708;27;20421;-71
2023/08/16 10:35:48;;;;;;;5.23;4.17;;;;;;;35.56;36.56;97648.00;5108315;27;20417;-70
2023/08/16 10:38:13;;;;;;;5.93;3.87;;;;;;;35.75;35.75;97641.59;5102529;28;20489;-70
2023/08/16 10:40:39;;;;;;;5.23;4.10;;;;;;;36.05;36.19;97631.94;5133507;27;20457;-70
2023/08/16 10:43:05;;;;;;;8.93;4.57;;;;;;;36.23;35.59;97632.84;5114983;27;20195;-70
2023/08/16 10:45:34;;;;;;;7.27;4.30;;;;;;;36.07;34.48;97634.34;5127887;27;20636;-69
2023/08/16 10:48:18;;;;;;;4.30;3.90;;;;;;;36.32;35.31;97632.09;5137641;27;21041;-71
2023/08/16 10:50:52;;;;;;;5.83;4.30;;;;;;;36.36;34.98;97628.44;5139813;27;20851;-71
2023/08/16 10:53:23;;;;;;;11.73;4.30;;;;;;;36.65;35.09;97629.13;5119169;27;20455;-71
2023/08/16 10:55:55;;;;;;;4.50;4.10;;;;;;;36.89;34.64;97632.28;5130620;27;20945;-70
2023/08/16 10:58:24;;;;;;;7.80;4.00;;;;;;;36.96;33.88;97626.38;5130207;27;20482;-70
2023/08/16 11:00:55;;;;;;;9.20;4.40;;;;;;;37.02;33.30;97624.31;5127526;27;20421;-71
2023/08/16 11:03:20;;;;;;;7.10;3.67;;;;;;;37.14;34.17;97623.69;5137298;27;20488;-70
2023/08/16 11:05:46;;;;;;;8.83;3.97;;;;;;;37.18;33.58;97614.53;5116850;27;20544;-70
2023/08/16 11:08:11;;;;;;;4.50;3.77;;;;;;;37.27;33.39;97611.84;5128351;27;20684;-71
2023/08/16 11:10:37;;;;;;;6.77;3.90;;;;;;;37.34;33.53;97611.34;5099346;27;20206;-71
2023/08/16 11:13:07;;;;;;;5.40;3.77;;;;;;;36.92;33.15;97606.28;5110378;27;20306;-71
2023/08/16 11:15:33;;;;;;;4.53;4.13;;;;;;;37.00;33.47;97615.63;5115562;27;20270;-70
2023/08/16 11:17:59;;;;;;;7.00;3.70;;;;;;;37.03;33.38;97607.59;5110992;27;20545;-72
2023/08/16 11:20:25;;;;;;;7.67;3.73;;;;;;;37.21;32.87;97613.13;5137718;27;20302;-71
2023/08/16 11:22:52;;;;;;;7.27;3.70;;;;;;;37.32;33.00;97611.69;5125628;27;20187;-71
2023/08/16 11:25:17;;;;;;;4.57;3.60;;;;;;;37.31;32.25;97612.00;5137924;27;21017;-71
2023/08/16 11:27:43;;;;;;;9.03;3.20;;;;;;;37.44;32.95;97604.81;5120563;27;20453;-72
2023/08/16 11:30:08;;;;;;;6.23;3.77;;;;;;;37.59;32.28;97607.09;5138230;27;20191;-71